createdAt,value
2023-03-29T00:03:04.345Z,1.07
2023-03-29T00:06:33.232Z,1.07
2023-03-29T00:09:54.699Z,1.06
2023-03-29T00:13:17.958Z,1.05
2023-03-29T00:16:39.518Z,1.05
2023-03-29T00:20:01.007Z,1.05
2023-03-29T00:23:25.090Z,1.03
2023-03-29T00:26:46.782Z,1.01
2023-03-29T00:30:11.172Z,1.01
2023-03-29T00:33:32.964Z,1.01
2023-03-29T00:36:58.009Z,0.97
2023-03-29T00:40:19.876Z,0.97
2023-03-29T00:43:56.767Z,0.95
2023-03-29T00:47:27.283Z,0.94
2023-03-29T00:50:52.111Z,0.94
2023-03-29T00:54:18.688Z,0.96
2023-03-29T00:57:43.332Z,0.96
2023-03-29T01:01:08.828Z,0.95
2023-03-29T01:04:36.435Z,0.95
2023-03-29T01:08:01.735Z,0.94
2023-03-29T01:11:28.405Z,0.93
2023-03-29T01:14:54.322Z,0.94
2023-03-29T01:18:16.283Z,0.92
2023-03-29T01:21:46.142Z,0.93
2023-03-29T01:25:17.200Z,0.87
2023-03-29T01:28:46.171Z,0.84
2023-03-29T01:32:13.054Z,0.79
2023-03-29T01:35:41.188Z,0.75
2023-03-29T01:39:07.204Z,0.71
2023-03-29T01:42:39.950Z,0.69
2023-03-29T01:46:09.609Z,0.70
2023-03-29T01:49:37.139Z,0.69
2023-03-29T01:53:04.291Z,0.68
2023-03-29T01:56:29.250Z,0.68
2023-03-29T01:59:51.989Z,0.70
2023-03-29T02:03:17.421Z,0.71
2023-03-29T02:06:40.736Z,0.72
2023-03-29T02:10:03.288Z,0.77
2023-03-29T02:13:25.358Z,0.81
2023-03-29T02:16:49.639Z,0.82
2023-03-29T02:20:19.137Z,0.80
2023-03-29T02:23:46.690Z,0.82
2023-03-29T02:27:08.621Z,0.83
2023-03-29T02:30:35.768Z,0.82
2023-03-29T02:34:02.274Z,0.83
2023-03-29T02:37:30.198Z,0.85
2023-03-29T02:40:52.929Z,0.91
2023-03-29T02:44:18.171Z,0.92
2023-03-29T02:47:43.021Z,0.93
2023-03-29T02:51:10.227Z,0.90
2023-03-29T02:54:33.810Z,0.90
2023-03-29T02:57:55.421Z,0.88
2023-03-29T03:01:20.424Z,0.88
2023-03-29T03:04:44.719Z,0.88
2023-03-29T03:08:08.285Z,0.90
2023-03-29T03:11:31.190Z,0.91
2023-03-29T03:14:53.051Z,0.90
2023-03-29T03:18:15.071Z,0.91
2023-03-29T03:21:37.749Z,0.93
2023-03-29T03:24:59.429Z,0.96
2023-03-29T03:28:24.306Z,0.95
2023-03-29T03:31:46.875Z,0.98
2023-03-29T03:35:25.342Z,0.98
2023-03-29T03:38:47.724Z,0.99
2023-03-29T03:42:09.531Z,1.00
2023-03-29T03:45:37.984Z,0.98
2023-03-29T03:49:06.666Z,0.94
2023-03-29T03:52:32.808Z,0.90
2023-03-29T03:55:56.244Z,0.90
2023-03-29T03:59:22.446Z,0.88
2023-03-29T04:03:02.619Z,0.84
2023-03-29T04:06:25.447Z,0.81
2023-03-29T04:10:08.687Z,0.72
2023-03-29T04:13:33.288Z,0.70
2023-03-29T04:17:17.835Z,0.69
2023-03-29T04:20:46.119Z,0.68
2023-03-29T04:24:09.313Z,0.67
2023-03-29T04:27:33.751Z,0.66
2023-03-29T04:30:59.673Z,0.69
2023-03-29T04:34:34.078Z,0.74
2023-03-29T04:37:57.345Z,0.77
2023-03-29T04:41:20.074Z,0.79
2023-03-29T04:45:18.523Z,0.78
2023-03-29T04:48:57.407Z,0.78
2023-03-29T04:52:33.008Z,0.76
2023-03-29T04:55:59.390Z,0.77
2023-03-29T04:59:41.463Z,0.77
2023-03-29T05:03:14.646Z,0.76
2023-03-29T05:07:03.045Z,0.75
2023-03-29T05:10:25.206Z,0.73
2023-03-29T05:13:48.881Z,0.75
2023-03-29T05:17:10.646Z,0.76
2023-03-29T05:20:32.501Z,0.81
2023-03-29T05:23:55.301Z,0.83
2023-03-29T05:27:36.143Z,0.89
2023-03-29T05:31:06.322Z,0.95
2023-03-29T05:34:31.475Z,1.01
2023-03-29T05:37:56.548Z,1.04
2023-03-29T05:41:18.952Z,1.09
2023-03-29T05:45:03.281Z,1.16
2023-03-29T05:48:27.383Z,1.24
2023-03-29T05:51:49.288Z,1.27
2023-03-29T05:55:11.684Z,1.26
2023-03-29T05:58:34.382Z,1.29
2023-03-29T06:01:56.248Z,1.32
2023-03-29T06:05:20.993Z,1.36
2023-03-29T06:08:53.215Z,1.42
2023-03-29T06:12:35.458Z,1.51
2023-03-29T06:15:58.624Z,1.56
2023-03-29T06:19:20.405Z,1.65
2023-03-29T06:22:44.216Z,1.77
2023-03-29T06:26:07.494Z,1.90
2023-03-29T06:29:31.717Z,2.00
2023-03-29T06:32:54.673Z,2.15
2023-03-29T06:36:36.778Z,2.28
2023-03-29T06:40:00.986Z,2.41
2023-03-29T06:43:29.171Z,2.55
2023-03-29T06:47:01.488Z,2.70
2023-03-29T06:50:23.448Z,2.83
2023-03-29T06:54:04.171Z,2.98
2023-03-29T06:57:28.013Z,3.10
2023-03-29T07:00:49.817Z,3.17
2023-03-29T07:04:18.944Z,3.34
2023-03-29T07:08:11.248Z,3.48
2023-03-29T07:11:46.700Z,3.60
2023-03-29T07:15:20.135Z,3.74
2023-03-29T07:19:01.709Z,3.84
2023-03-29T07:22:44.600Z,3.97
2023-03-29T07:26:07.620Z,4.06
2023-03-29T07:29:29.911Z,4.16
2023-03-29T07:32:53.558Z,4.26
2023-03-29T07:36:38.535Z,4.37
2023-03-29T07:40:01.240Z,4.44
2023-03-29T07:43:34.161Z,4.55
2023-03-29T07:46:56.247Z,4.62
2023-03-29T07:50:19.326Z,4.72
2023-03-29T07:53:41.088Z,4.82
2023-03-29T07:57:17.336Z,4.87
2023-03-29T08:00:45.576Z,5.03
2023-03-29T08:04:30.434Z,5.14
2023-03-29T08:08:28.663Z,5.27
2023-03-29T08:11:54.615Z,5.35
2023-03-29T08:15:24.176Z,5.44
2023-03-29T08:18:46.194Z,5.52
2023-03-29T08:22:08.151Z,5.59
2023-03-29T08:25:52.150Z,5.72
2023-03-29T08:29:14.094Z,5.74
2023-03-29T08:32:36.121Z,5.74
2023-03-29T08:35:57.764Z,5.75
2023-03-29T08:39:23.954Z,5.76
2023-03-29T08:43:25.983Z,5.83
2023-03-29T08:47:15.202Z,5.95
2023-03-29T08:50:41.694Z,6.04
2023-03-29T08:54:07.185Z,6.09
2023-03-29T08:57:51.661Z,6.13
2023-03-29T09:01:26.412Z,6.21
2023-03-29T09:04:52.440Z,6.22
2023-03-29T09:08:29.652Z,6.31
2023-03-29T09:12:09.403Z,6.37
2023-03-29T09:15:42.900Z,6.43
2023-03-29T09:19:38.774Z,6.59
2023-03-29T09:23:12.501Z,6.72
2023-03-29T09:26:59.121Z,6.77
2023-03-29T09:30:29.644Z,6.79
2023-03-29T09:33:59.671Z,6.86
2023-03-29T09:37:39.345Z,6.97
2023-03-29T09:41:22.271Z,7.06
2023-03-29T09:44:49.276Z,7.09
2023-03-29T09:48:19.509Z,7.21
2023-03-29T09:51:50.489Z,7.37
2023-03-29T09:55:18.411Z,7.49
2023-03-29T09:58:56.451Z,7.64
2023-03-29T10:02:21.167Z,7.71
2023-03-29T10:05:47.045Z,7.80
2023-03-29T10:09:17.415Z,7.90
2023-03-29T10:12:43.581Z,8.01
2023-03-29T10:16:07.488Z,8.10
2023-03-29T10:19:34.409Z,8.19
2023-03-29T10:22:57.928Z,8.15
2023-03-29T10:26:29.180Z,8.18
2023-03-29T10:29:52.997Z,8.22
2023-03-29T10:33:19.720Z,8.32
2023-03-29T10:36:42.696Z,8.45
2023-03-29T10:40:05.440Z,8.60
2023-03-29T10:43:29.776Z,8.71
2023-03-29T10:46:52.649Z,8.83
2023-03-29T10:50:16.805Z,8.91
2023-03-29T10:53:39.125Z,8.99
2023-03-29T10:57:05.670Z,9.09
2023-03-29T11:00:36.763Z,9.18
2023-03-29T11:04:12.845Z,9.19
2023-03-29T11:07:37.907Z,9.21
2023-03-29T11:11:12.630Z,9.16
2023-03-29T11:14:42.485Z,9.23
2023-03-29T11:18:24.903Z,9.14
2023-03-29T11:21:57.091Z,9.21
2023-03-29T11:25:35.968Z,9.24
2023-03-29T11:29:01.584Z,9.34
2023-03-29T11:32:30.386Z,9.41
2023-03-29T11:36:00.153Z,9.39
2023-03-29T11:39:37.762Z,9.46
2023-03-29T11:43:04.542Z,9.54
2023-03-29T11:46:31.522Z,9.45
2023-03-29T11:49:57.405Z,9.56
2023-03-29T11:53:26.342Z,9.65
2023-03-29T11:56:56.777Z,9.70
2023-03-29T12:00:24.129Z,9.76
2023-03-29T12:03:51.696Z,9.84
2023-03-29T12:07:18.948Z,9.95
2023-03-29T12:10:46.266Z,10.07
2023-03-29T12:14:15.315Z,10.13
2023-03-29T12:17:42.830Z,10.21
2023-03-29T12:21:12.148Z,10.07
2023-03-29T12:24:37.519Z,10.05
2023-03-29T12:28:09.902Z,10.03
2023-03-29T12:31:40.769Z,10.01
2023-03-29T12:35:19.246Z,10.07
2023-03-29T12:39:00.113Z,10.02
2023-03-29T12:42:53.224Z,9.97
2023-03-29T12:46:41.945Z,9.95
2023-03-29T12:50:04.725Z,10.03
2023-03-29T12:53:32.403Z,10.13
2023-03-29T12:57:01.104Z,10.27
2023-03-29T13:00:27.226Z,10.32
2023-03-29T13:03:52.664Z,10.31
2023-03-29T13:07:16.501Z,10.28
2023-03-29T13:10:42.396Z,10.33
2023-03-29T13:14:12.584Z,10.39
2023-03-29T13:17:46.035Z,10.32
2023-03-29T13:21:18.815Z,10.39
2023-03-29T13:25:06.679Z,10.47
2023-03-29T13:28:35.781Z,10.55
2023-03-29T13:32:05.360Z,10.65
2023-03-29T13:35:42.502Z,10.70
2023-03-29T13:39:08.356Z,10.81
2023-03-29T13:42:41.803Z,10.82
2023-03-29T13:46:20.210Z,10.76
2023-03-29T13:49:44.854Z,10.60
2023-03-29T13:53:13.817Z,10.44
2023-03-29T13:56:41.634Z,10.33
2023-03-29T14:00:11.793Z,10.33
2023-03-29T14:03:41.551Z,10.35
2023-03-29T14:07:03.783Z,10.39
2023-03-29T14:10:28.600Z,10.45
2023-03-29T14:13:53.725Z,10.51
2023-03-29T14:17:20.428Z,10.55
2023-03-29T14:20:45.070Z,10.57
2023-03-29T14:24:12.550Z,10.49
2023-03-29T14:27:37.801Z,10.54
2023-03-29T14:31:01.116Z,10.39
2023-03-29T14:34:24.141Z,10.39
2023-03-29T14:37:47.710Z,10.34
2023-03-29T14:41:10.054Z,10.30
2023-03-29T14:44:34.835Z,10.30
2023-03-29T14:48:00.618Z,10.22
2023-03-29T14:51:23.383Z,10.20
2023-03-29T14:54:49.541Z,10.17
2023-03-29T14:58:20.694Z,10.17
2023-03-29T15:01:45.582Z,10.19
2023-03-29T15:05:25.662Z,10.09
2023-03-29T15:09:03.778Z,10.04
2023-03-29T15:12:29.693Z,10.01
2023-03-29T15:15:54.830Z,10.05
2023-03-29T15:19:19.415Z,10.09
2023-03-29T15:22:54.753Z,10.09
2023-03-29T15:26:22.033Z,10.13
2023-03-29T15:29:46.880Z,10.07
2023-03-29T15:33:17.763Z,10.01
2023-03-29T15:36:43.198Z,10.02
2023-03-29T15:40:09.775Z,10.02
2023-03-29T15:43:32.011Z,10.04
2023-03-29T15:46:55.223Z,9.99
2023-03-29T15:50:16.753Z,10.03
2023-03-29T15:53:38.601Z,10.05
2023-03-29T15:57:06.578Z,10.10
2023-03-29T16:00:28.897Z,10.21
2023-03-29T16:03:51.132Z,10.24
2023-03-29T16:07:16.004Z,10.28
2023-03-29T16:10:37.670Z,10.34
2023-03-29T16:14:01.214Z,10.41
2023-03-29T16:17:22.945Z,10.41
2023-03-29T16:20:44.882Z,10.47
2023-03-29T16:24:07.307Z,10.50
2023-03-29T16:27:29.683Z,10.48
2023-03-29T16:30:52.907Z,10.54
2023-03-29T16:34:16.253Z,10.57
2023-03-29T16:37:37.720Z,10.61
2023-03-29T16:40:59.513Z,10.63
2023-03-29T16:44:24.359Z,10.62
2023-03-29T16:47:47.618Z,10.64
2023-03-29T16:51:10.418Z,10.66
2023-03-29T16:54:32.626Z,10.66
2023-03-29T16:57:54.336Z,10.64
2023-03-29T17:01:17.556Z,10.62
2023-03-29T17:04:40.473Z,10.59
2023-03-29T17:08:02.230Z,10.54
2023-03-29T17:11:24.080Z,10.53
2023-03-29T17:14:45.853Z,10.54
2023-03-29T17:18:07.797Z,10.54
2023-03-29T17:21:31.687Z,10.53
2023-03-29T17:24:53.605Z,10.50
2023-03-29T17:28:15.379Z,10.50
2023-03-29T17:31:38.019Z,10.48
2023-03-29T17:35:00.325Z,10.47
2023-03-29T17:38:23.653Z,10.46
2023-03-29T17:41:45.713Z,10.44
2023-03-29T17:45:08.832Z,10.45
2023-03-29T17:48:31.759Z,10.42
2023-03-29T17:51:53.609Z,10.41
2023-03-29T17:55:17.303Z,10.37
2023-03-29T17:58:39.382Z,10.35
2023-03-29T18:02:02.562Z,10.34
2023-03-29T18:05:24.098Z,10.33
2023-03-29T18:08:46.319Z,10.31
2023-03-29T18:12:09.891Z,10.30
2023-03-29T18:15:31.763Z,10.28
2023-03-29T18:18:53.538Z,10.27
2023-03-29T18:22:15.387Z,10.25
2023-03-29T18:25:38.717Z,10.23
2023-03-29T18:29:01.871Z,10.21
2023-03-29T18:32:23.784Z,10.17
2023-03-29T18:35:48.586Z,10.16
2023-03-29T18:39:10.986Z,10.14
2023-03-29T18:42:32.550Z,10.11
2023-03-29T18:45:55.897Z,10.09
2023-03-29T18:49:17.336Z,10.09
2023-03-29T18:52:39.304Z,10.07
2023-03-29T18:56:02.648Z,10.05
2023-03-29T18:59:24.377Z,10.05
2023-03-29T19:02:47.427Z,10.04
2023-03-29T19:06:10.107Z,10.05
2023-03-29T19:09:32.421Z,10.06
2023-03-29T19:12:54.231Z,10.05
2023-03-29T19:16:15.955Z,10.04
2023-03-29T19:19:39.288Z,10.06
2023-03-29T19:23:01.778Z,10.06
2023-03-29T19:26:23.418Z,10.07
2023-03-29T19:29:46.166Z,10.07
2023-03-29T19:33:07.749Z,10.07
2023-03-29T19:36:32.002Z,10.07
2023-03-29T19:39:55.564Z,10.04
2023-03-29T19:43:18.040Z,10.03
2023-03-29T19:46:39.348Z,10.02
2023-03-29T19:50:01.806Z,10.00
2023-03-29T19:53:24.759Z,9.99
2023-03-29T19:56:46.358Z,9.97
2023-03-29T20:00:10.110Z,9.99
2023-03-29T20:03:36.097Z,9.98
2023-03-29T20:06:57.818Z,10.00
2023-03-29T20:10:21.120Z,9.99
2023-03-29T20:13:44.486Z,9.99
2023-03-29T20:17:06.029Z,10.00
2023-03-29T20:20:28.353Z,10.00
2023-03-29T20:23:50.253Z,10.01
2023-03-29T20:27:13.865Z,10.01
2023-03-29T20:30:36.361Z,10.00
2023-03-29T20:33:57.929Z,9.99
2023-03-29T20:37:23.057Z,9.96
2023-03-29T20:40:44.937Z,9.94
2023-03-29T20:44:07.912Z,9.91
2023-03-29T20:47:29.743Z,9.88
2023-03-29T20:50:52.104Z,9.87
2023-03-29T20:54:14.368Z,9.85
2023-03-29T20:57:37.998Z,9.84
2023-03-29T21:01:01.177Z,9.82
2023-03-29T21:04:23.311Z,9.80
2023-03-29T21:07:47.965Z,9.78
2023-03-29T21:11:13.048Z,9.76
2023-03-29T21:14:34.872Z,9.76
2023-03-29T21:17:57.976Z,9.75
2023-03-29T21:21:19.493Z,9.75
2023-03-29T21:24:41.543Z,9.74
2023-03-29T21:28:03.083Z,9.74
2023-03-29T21:31:25.434Z,9.73
2023-03-29T21:34:48.693Z,9.73
2023-03-29T21:38:10.346Z,9.70
2023-03-29T21:41:31.686Z,9.69
2023-03-29T21:44:53.181Z,9.67
2023-03-29T21:48:14.989Z,9.66
2023-03-29T21:51:38.319Z,9.65
2023-03-29T21:54:59.870Z,9.66
2023-03-29T21:58:22.069Z,9.66
2023-03-29T22:01:44.097Z,9.66
2023-03-29T22:05:06.972Z,9.67
2023-03-29T22:08:30.899Z,9.64
2023-03-29T22:11:52.473Z,9.64
2023-03-29T22:15:15.081Z,9.63
2023-03-29T22:18:43.327Z,9.64
2023-03-29T22:22:07.295Z,9.65
2023-03-29T22:25:30.508Z,9.65
2023-03-29T22:28:52.736Z,9.67
2023-03-29T22:32:14.496Z,9.67
2023-03-29T22:35:36.557Z,9.66
2023-03-29T22:38:58.507Z,9.66
2023-03-29T22:42:21.714Z,9.65
2023-03-29T22:45:43.495Z,9.65
2023-03-29T22:49:06.142Z,9.62
2023-03-29T22:52:27.760Z,9.59
2023-03-29T22:55:49.602Z,9.58
2023-03-29T22:59:13.019Z,9.56
2023-03-29T23:02:34.794Z,9.56
2023-03-29T23:05:58.584Z,9.56
2023-03-29T23:09:20.420Z,9.55
2023-03-29T23:12:42.903Z,9.55
2023-03-29T23:16:06.626Z,9.54
2023-03-29T23:19:28.357Z,9.55
2023-03-29T23:22:50.291Z,9.57
2023-03-29T23:26:11.849Z,9.56
2023-03-29T23:29:34.499Z,9.56
2023-03-29T23:32:58.262Z,9.57
2023-03-29T23:36:21.415Z,9.55
2023-03-29T23:39:42.730Z,9.54
2023-03-29T23:43:04.516Z,9.52
2023-03-29T23:46:26.365Z,9.50
2023-03-29T23:49:50.679Z,9.49
2023-03-29T23:53:12.472Z,9.47
2023-03-29T23:56:34.238Z,9.45
